createdAt,value
2019-05-14T00:00:45.639Z,6.47
2019-05-14T00:03:45.584Z,6.44
2019-05-14T00:06:45.587Z,6.26
2019-05-14T00:09:45.540Z,6.21
2019-05-14T00:12:45.500Z,6.32
2019-05-14T00:15:45.504Z,6.29
2019-05-14T00:18:45.428Z,6.16
2019-05-14T00:21:45.451Z,6.13
2019-05-14T00:24:45.378Z,6.26
2019-05-14T00:27:45.349Z,6.14
2019-05-14T00:30:45.300Z,6.10
2019-05-14T00:33:45.313Z,6.16
2019-05-14T00:36:45.239Z,6.21
2019-05-14T00:39:45.223Z,6.11
2019-05-14T00:42:45.214Z,5.89
2019-05-14T00:45:45.146Z,5.71
2019-05-14T00:48:45.144Z,5.64
2019-05-14T00:51:45.098Z,5.55
2019-05-14T00:54:45.072Z,5.25
2019-05-14T00:57:45.025Z,5.16
2019-05-14T01:00:45.003Z,5.19
2019-05-14T01:03:44.985Z,5.12
2019-05-14T01:06:44.926Z,5.14
2019-05-14T01:09:44.920Z,5.17
2019-05-14T01:12:44.857Z,5.01
2019-05-14T01:15:44.858Z,4.65
2019-05-14T01:18:44.798Z,4.52
2019-05-14T01:21:44.769Z,4.34
2019-05-14T01:24:44.746Z,4.46
2019-05-14T01:27:44.702Z,4.43
2019-05-14T01:30:44.694Z,4.55
2019-05-14T01:33:44.651Z,4.76
2019-05-14T01:36:44.621Z,4.83
2019-05-14T01:39:44.580Z,4.83
2019-05-14T01:42:44.560Z,4.88
2019-05-14T01:45:44.511Z,4.94
2019-05-14T01:48:44.496Z,4.94
2019-05-14T01:51:44.439Z,4.94
2019-05-14T01:54:44.420Z,5.04
2019-05-14T01:57:44.384Z,4.98
2019-05-14T02:00:44.368Z,4.92
2019-05-14T02:03:44.332Z,4.77
2019-05-14T02:06:44.286Z,4.80
2019-05-14T02:09:44.272Z,4.80
2019-05-14T02:12:44.235Z,4.76
2019-05-14T02:15:44.209Z,4.62
2019-05-14T02:18:44.173Z,4.65
2019-05-14T02:21:44.126Z,4.76
2019-05-14T02:24:44.108Z,4.58
2019-05-14T02:27:44.055Z,4.36
2019-05-14T02:30:52.637Z,4.40
2019-05-14T02:33:45.009Z,4.16
2019-05-14T02:36:43.987Z,4.04
2019-05-14T02:39:43.954Z,3.76
2019-05-14T02:42:43.903Z,3.67
2019-05-14T02:46:00.677Z,3.71
2019-05-14T02:48:44.843Z,3.64
2019-05-14T02:51:43.825Z,3.39
2019-05-14T02:54:43.791Z,3.28
2019-05-14T02:57:43.742Z,3.25
2019-05-14T03:00:43.725Z,3.39
2019-05-14T03:03:43.679Z,3.24
2019-05-14T03:06:43.680Z,3.09
2019-05-14T03:09:43.627Z,3.24
2019-05-14T03:12:43.596Z,3.34
2019-05-14T03:15:43.557Z,3.34
2019-05-14T03:18:43.538Z,3.31
2019-05-14T03:21:43.508Z,3.07
2019-05-14T03:24:43.450Z,3.09
2019-05-14T03:27:43.430Z,3.10
2019-05-14T03:30:43.391Z,3.02
2019-05-14T03:33:44.629Z,2.97
2019-05-14T03:36:44.081Z,3.07
2019-05-14T03:39:43.311Z,3.13
2019-05-14T03:42:43.265Z,2.98
2019-05-14T03:45:43.255Z,3.02
2019-05-14T03:48:43.202Z,2.98
2019-05-14T03:51:43.188Z,3.00
2019-05-14T03:54:43.152Z,3.15
2019-05-14T03:57:43.108Z,3.00
2019-05-14T04:00:43.096Z,3.09
2019-05-14T04:03:43.035Z,3.18
2019-05-14T04:06:43.025Z,3.23
2019-05-14T04:09:42.986Z,3.36
2019-05-14T04:12:42.945Z,3.36
2019-05-14T04:15:42.924Z,3.49
2019-05-14T04:18:42.901Z,3.58
2019-05-14T04:21:42.856Z,3.92
2019-05-14T04:24:42.818Z,4.03
2019-05-14T04:27:42.797Z,4.18
2019-05-14T04:30:42.761Z,4.26
2019-05-14T04:33:42.733Z,4.40
2019-05-14T04:36:42.700Z,4.47
2019-05-14T04:39:42.672Z,4.67
2019-05-14T04:42:42.632Z,5.02
2019-05-14T04:45:42.610Z,7.49
2019-05-14T04:48:44.113Z,9.21
2019-05-14T04:51:42.544Z,10.01
2019-05-14T04:54:42.488Z,9.31
2019-05-14T04:57:42.497Z,11.50
2019-05-14T05:00:42.428Z,12.95
2019-05-14T05:03:42.413Z,13.84
2019-05-14T05:06:42.387Z,13.88
2019-05-14T05:09:42.332Z,13.92
2019-05-14T05:12:42.318Z,13.15
2019-05-14T05:15:42.270Z,13.04
2019-05-14T05:18:42.261Z,11.03
2019-05-14T05:21:42.227Z,12.09
2019-05-14T05:24:42.189Z,12.13
2019-05-14T05:27:42.149Z,9.20
2019-05-14T05:30:42.144Z,8.11
2019-05-14T05:33:42.082Z,8.36
2019-05-14T05:36:42.064Z,11.07
2019-05-14T05:39:42.032Z,12.78
2019-05-14T05:42:41.984Z,14.20
2019-05-14T05:45:41.978Z,13.76
2019-05-14T05:48:41.937Z,13.25
2019-05-14T05:51:41.911Z,14.16
2019-05-14T05:54:41.856Z,15.26
2019-05-14T05:57:41.846Z,15.08
2019-05-14T06:00:41.815Z,16.20
2019-05-14T06:03:41.755Z,15.06
2019-05-14T06:06:41.735Z,15.79
2019-05-14T06:09:41.690Z,16.88
2019-05-14T06:12:41.688Z,18.10
2019-05-14T06:15:48.234Z,18.15
2019-05-14T06:18:42.603Z,17.33
2019-05-14T06:21:41.571Z,16.37
2019-05-14T06:24:48.850Z,16.50
2019-05-14T06:27:41.512Z,18.42
2019-05-14T06:30:41.477Z,18.77
2019-05-14T06:33:41.447Z,13.80
2019-05-14T06:36:41.426Z,15.74
2019-05-14T06:39:41.369Z,15.63
2019-05-14T06:42:48.898Z,15.54
2019-05-14T06:45:41.300Z,14.53
2019-05-14T06:48:41.285Z,13.46
2019-05-14T06:51:41.256Z,12.21
2019-05-14T06:54:41.211Z,13.49
2019-05-14T06:57:41.208Z,15.78
2019-05-14T07:00:41.145Z,16.03
2019-05-14T07:03:41.113Z,16.48
2019-05-14T07:06:48.712Z,17.48
2019-05-14T07:09:41.069Z,19.15
2019-05-14T07:12:41.028Z,18.13
2019-05-14T07:15:48.908Z,18.91
2019-05-14T07:18:53.442Z,19.11
2019-05-14T07:21:41.913Z,19.95
2019-05-14T07:24:49.749Z,20.87
2019-05-14T07:27:48.969Z,19.40
2019-05-14T07:30:48.715Z,20.03
2019-05-14T07:33:40.822Z,19.60
2019-05-14T07:36:49.101Z,21.09
2019-05-14T07:39:48.660Z,20.38
2019-05-14T07:42:48.730Z,19.57
2019-05-14T07:45:49.125Z,20.53
2019-05-14T07:49:03.556Z,17.94
2019-05-14T07:51:41.613Z,22.07
2019-05-14T07:54:48.279Z,22.94
2019-05-14T07:57:48.297Z,23.05
2019-05-14T08:00:49.123Z,22.16
2019-05-14T08:03:48.744Z,23.07
2019-05-14T08:06:48.760Z,24.35
2019-05-14T08:09:40.404Z,16.53
2019-05-14T08:12:40.411Z,15.12
2019-05-14T08:15:40.341Z,17.15
2019-05-14T08:18:40.341Z,18.91
2019-05-14T08:21:49.435Z,14.28
2019-05-14T08:24:40.266Z,14.04
2019-05-14T08:27:48.296Z,14.90
2019-05-14T08:30:49.116Z,18.31
2019-05-14T08:33:48.866Z,18.34
2019-05-14T08:36:48.355Z,21.06
2019-05-14T08:39:48.653Z,22.43
2019-05-14T08:42:49.034Z,20.62
2019-05-14T08:45:40.064Z,18.10
2019-05-14T08:48:40.029Z,20.64
2019-05-14T08:51:39.959Z,22.35
2019-05-14T08:54:39.951Z,15.75
2019-05-14T08:57:48.938Z,20.10
2019-05-14T09:00:39.900Z,15.67
2019-05-14T09:03:39.835Z,14.28
2019-05-14T09:06:39.834Z,14.42
2019-05-14T09:09:39.772Z,13.37
2019-05-14T09:12:39.776Z,15.57
2019-05-14T09:15:39.710Z,19.25
2019-05-14T09:18:39.707Z,21.36
2019-05-14T09:21:40.007Z,18.91
2019-05-14T09:24:39.613Z,18.46
2019-05-14T09:27:39.603Z,19.05
2019-05-14T09:30:39.547Z,19.76
2019-05-14T09:33:39.548Z,20.72
2019-05-14T09:36:39.835Z,16.77
2019-05-14T09:39:39.478Z,15.45
2019-05-14T09:42:39.679Z,14.61
2019-05-14T09:45:39.418Z,14.74
2019-05-14T09:48:39.361Z,16.09
2019-05-14T09:51:39.350Z,17.14
2019-05-14T09:54:43.726Z,16.01
2019-05-14T09:57:39.285Z,19.35
2019-05-14T10:00:39.252Z,21.54
2019-05-14T10:03:39.351Z,20.54
2019-05-14T10:06:39.422Z,19.11
2019-05-14T10:09:39.368Z,21.98
2019-05-14T10:12:50.890Z,21.63
2019-05-14T10:15:40.108Z,24.22
2019-05-14T10:18:39.049Z,22.04
2019-05-14T10:21:39.102Z,21.92
2019-05-14T10:24:39.029Z,18.33
2019-05-14T10:27:38.958Z,18.87
2019-05-14T10:30:38.954Z,23.50
2019-05-14T10:33:38.915Z,20.13
2019-05-14T10:36:38.884Z,18.76
2019-05-14T10:39:39.335Z,16.85
2019-05-14T10:42:40.535Z,15.72
2019-05-14T10:45:38.804Z,19.28
2019-05-14T10:48:39.520Z,16.42
2019-05-14T10:51:39.026Z,17.76
2019-05-14T10:54:47.811Z,16.40
2019-05-14T10:57:39.650Z,21.24
2019-05-14T11:00:41.860Z,21.94
2019-05-14T11:03:38.920Z,20.24
2019-05-14T11:06:38.929Z,21.74
2019-05-14T11:09:38.527Z,19.65
2019-05-14T11:12:39.634Z,21.42
2019-05-14T11:15:39.460Z,23.65
2019-05-14T11:18:39.918Z,24.37
2019-05-14T11:21:39.191Z,25.89
2019-05-14T11:24:38.716Z,19.47
2019-05-14T11:27:38.896Z,18.15
2019-05-14T11:30:39.225Z,18.39
2019-05-14T11:33:38.818Z,20.42
2019-05-14T11:36:38.973Z,18.65
2019-05-14T11:39:38.227Z,20.95
2019-05-14T11:42:38.789Z,20.00
2019-05-14T11:45:39.225Z,19.39
2019-05-14T11:48:39.337Z,22.57
2019-05-14T11:51:59.503Z,21.53
2019-05-14T11:54:40.941Z,20.76
2019-05-14T11:57:38.046Z,21.35
2019-05-14T12:00:38.702Z,17.74
2019-05-14T12:03:39.400Z,21.81
2019-05-14T12:06:39.115Z,21.94
2019-05-14T12:09:39.122Z,22.93
2019-05-14T12:12:37.908Z,21.17
2019-05-14T12:15:38.884Z,18.00
2019-05-14T12:18:41.797Z,18.29
2019-05-14T12:21:39.773Z,17.92
2019-05-14T12:24:38.742Z,19.47
2019-05-14T12:27:38.843Z,22.80
2019-05-14T12:30:39.559Z,24.01
2019-05-14T12:33:39.662Z,25.06
2019-05-14T12:36:38.876Z,24.85
2019-05-14T12:39:37.629Z,21.24
2019-05-14T12:42:39.215Z,18.42
2019-05-14T12:45:39.371Z,16.83
2019-05-14T12:48:38.947Z,16.73
2019-05-14T12:51:41.738Z,21.21
2019-05-14T12:54:38.862Z,23.95
2019-05-14T12:57:39.427Z,21.69
2019-05-14T13:00:39.329Z,20.06
2019-05-14T13:03:37.352Z,22.12
2019-05-14T13:06:40.106Z,18.44
2019-05-14T13:09:38.564Z,17.28
2019-05-14T13:12:39.064Z,18.00
2019-05-14T13:15:39.352Z,19.21
2019-05-14T13:18:38.767Z,19.28
2019-05-14T13:21:38.927Z,19.43
2019-05-14T13:24:39.387Z,17.25
2019-05-14T13:27:39.192Z,22.67
2019-05-14T13:30:37.104Z,25.38
2019-05-14T13:33:39.320Z,24.49
2019-05-14T13:36:39.529Z,19.98
2019-05-14T13:39:39.827Z,18.24
2019-05-14T13:42:39.923Z,22.44
2019-05-14T13:45:39.148Z,23.45
2019-05-14T13:48:42.679Z,22.49
2019-05-14T13:51:38.821Z,22.41
2019-05-14T13:54:39.146Z,22.09
2019-05-14T13:57:39.481Z,23.23
2019-05-14T14:00:36.771Z,23.75
2019-05-14T14:03:46.646Z,24.50
2019-05-14T14:06:39.399Z,22.77
2019-05-14T14:09:39.138Z,19.21
2019-05-14T14:12:39.908Z,17.85
2019-05-14T14:15:38.456Z,17.81
2019-05-14T14:18:38.860Z,20.47
2019-05-14T14:21:39.361Z,21.16
2019-05-14T14:24:38.695Z,19.97
2019-05-14T14:27:39.982Z,19.29
2019-05-14T14:30:39.287Z,16.59
2019-05-14T14:33:38.910Z,16.30
2019-05-14T14:36:38.657Z,20.46
2019-05-14T14:39:36.391Z,21.91
2019-05-14T14:42:36.323Z,21.39
2019-05-14T14:45:44.789Z,22.37
2019-05-14T14:48:39.571Z,22.29
2019-05-14T14:51:41.738Z,19.72
2019-05-14T14:54:38.183Z,19.95
2019-05-14T14:57:37.899Z,17.47
2019-05-14T15:02:21.015Z,20.86
2019-05-14T15:05:21.038Z,22.78
2019-05-14T15:08:20.942Z,22.19
2019-05-14T15:11:20.936Z,21.21
2019-05-14T15:14:20.889Z,24.07
2019-05-14T15:17:20.892Z,22.82
2019-05-14T15:20:20.818Z,21.36
2019-05-14T15:23:20.815Z,17.84
2019-05-14T15:26:20.776Z,17.03
2019-05-14T15:29:20.729Z,20.49
2019-05-14T15:32:20.711Z,20.77
2019-05-14T15:35:20.653Z,19.13
2019-05-14T15:38:30.510Z,17.95
2019-05-14T15:41:20.735Z,17.46
2019-05-14T15:44:20.594Z,16.62
2019-05-14T15:47:20.522Z,16.55
2019-05-14T15:50:20.507Z,17.41
2019-05-14T15:53:20.494Z,16.38
2019-05-14T15:56:20.433Z,16.67
2019-05-14T15:59:20.424Z,18.82
2019-05-14T16:02:20.378Z,17.50
2019-05-14T16:05:20.341Z,18.07
2019-05-14T16:08:22.892Z,19.70
2019-05-14T16:11:20.267Z,18.61
2019-05-14T16:14:20.251Z,18.07
2019-05-14T16:17:24.509Z,16.77
2019-05-14T16:20:21.195Z,16.86
2019-05-14T16:23:20.166Z,16.50
2019-05-14T16:26:20.115Z,16.80
2019-05-14T16:29:36.873Z,16.98
2019-05-14T16:32:21.035Z,16.67
2019-05-14T16:35:21.306Z,16.62
2019-05-14T16:38:23.033Z,16.07
2019-05-14T16:41:19.938Z,16.15
2019-05-14T16:44:19.934Z,15.88
2019-05-14T16:47:19.889Z,16.15
2019-05-14T16:50:19.866Z,16.38
2019-05-14T16:53:19.813Z,16.50
2019-05-14T16:56:19.808Z,16.35
2019-05-14T16:59:19.742Z,16.42
2019-05-14T17:02:19.740Z,16.16
2019-05-14T17:05:19.686Z,16.09
2019-05-14T17:08:19.715Z,16.25
2019-05-14T17:11:19.627Z,16.41
2019-05-14T17:14:19.594Z,15.99
2019-05-14T17:17:20.146Z,15.70
2019-05-14T17:20:23.660Z,15.84
2019-05-14T17:23:19.482Z,15.84
2019-05-14T17:26:19.473Z,15.61
2019-05-14T17:29:19.448Z,15.48
2019-05-14T17:32:19.398Z,15.38
2019-05-14T17:35:19.762Z,15.35
2019-05-14T17:38:19.313Z,15.12
2019-05-14T17:41:19.680Z,15.12
2019-05-14T17:44:19.247Z,15.03
2019-05-14T17:47:19.245Z,14.93
2019-05-14T17:50:19.202Z,14.95
2019-05-14T17:53:19.155Z,14.88
2019-05-14T17:56:22.420Z,14.83
2019-05-14T17:59:19.324Z,14.88
2019-05-14T18:02:19.295Z,14.83
2019-05-14T18:05:19.035Z,14.72
2019-05-14T18:08:26.026Z,14.69
2019-05-14T18:11:19.278Z,14.56
2019-05-14T18:14:19.176Z,14.47
2019-05-14T18:17:19.047Z,14.34
2019-05-14T18:20:18.862Z,14.31
2019-05-14T18:23:18.861Z,14.20
2019-05-14T18:26:19.090Z,14.21
2019-05-14T18:29:19.063Z,14.12
2019-05-14T18:32:19.091Z,14.10
2019-05-14T18:35:18.985Z,14.02
2019-05-14T18:38:19.417Z,13.96
2019-05-14T18:41:19.046Z,13.89
2019-05-14T18:44:19.115Z,13.73
2019-05-14T18:47:20.018Z,13.63
2019-05-14T18:50:19.614Z,13.56
2019-05-14T18:53:19.082Z,13.56
2019-05-14T18:56:23.782Z,13.32
2019-05-14T18:59:21.339Z,13.20
2019-05-14T19:02:18.572Z,13.03
2019-05-14T19:05:18.435Z,13.03
2019-05-14T19:08:18.334Z,12.78
2019-05-14T19:11:18.332Z,12.77
2019-05-14T19:14:18.861Z,12.74
2019-05-14T19:17:18.770Z,12.38
2019-05-14T19:20:19.280Z,12.12
2019-05-14T19:23:18.805Z,11.99
2019-05-14T19:26:32.999Z,11.68
2019-05-14T19:29:19.098Z,11.74
2019-05-14T19:32:19.105Z,11.62
2019-05-14T19:35:19.170Z,11.56
2019-05-14T19:38:18.031Z,11.44
2019-05-14T19:41:20.931Z,11.54
2019-05-14T19:44:19.087Z,11.62
2019-05-14T19:47:18.685Z,11.62
2019-05-14T19:50:18.745Z,11.53
2019-05-14T19:53:17.863Z,11.50
2019-05-14T19:56:17.839Z,11.56
2019-05-14T19:59:18.292Z,11.53
2019-05-14T20:02:18.425Z,11.17
2019-05-14T20:05:19.086Z,11.29
2019-05-14T20:08:18.913Z,11.29
2019-05-14T20:11:19.312Z,11.36
2019-05-14T20:14:17.602Z,11.36
2019-05-14T20:17:19.449Z,11.14
2019-05-14T20:20:19.312Z,11.24
2019-05-14T20:23:18.524Z,10.99
2019-05-14T20:26:17.496Z,10.98
2019-05-14T20:29:19.467Z,10.94
2019-05-14T20:32:19.399Z,10.60
2019-05-14T20:35:30.356Z,10.24
2019-05-14T20:38:18.653Z,10.42
2019-05-14T20:41:18.015Z,10.12
2019-05-14T20:44:18.898Z,9.88
2019-05-14T20:47:19.001Z,9.93
2019-05-14T20:50:18.258Z,10.03
2019-05-14T20:53:18.596Z,10.06
2019-05-14T20:56:18.941Z,10.06
2019-05-14T20:59:19.157Z,10.00
2019-05-14T21:02:18.625Z,9.97
2019-05-14T21:05:18.804Z,9.91
2019-05-14T21:08:18.850Z,9.70
2019-05-14T21:11:19.092Z,9.71
2019-05-14T21:14:18.282Z,9.53
2019-05-14T21:17:19.100Z,9.57
2019-05-14T21:20:18.432Z,9.34
2019-05-14T21:23:18.357Z,9.10
2019-05-14T21:26:19.160Z,9.01
2019-05-14T21:29:16.759Z,8.79
2019-05-14T21:32:19.459Z,8.54
2019-05-14T21:35:19.113Z,8.21
2019-05-14T21:38:18.990Z,7.93
2019-05-14T21:41:20.149Z,7.55
2019-05-14T21:44:18.695Z,7.17
2019-05-14T21:47:16.561Z,6.99
2019-05-14T21:50:18.122Z,6.90
2019-05-14T21:53:18.959Z,6.77
2019-05-14T21:56:21.294Z,6.73
2019-05-14T21:59:18.914Z,6.69
2019-05-14T22:02:24.450Z,6.68
2019-05-14T22:05:18.977Z,6.54
2019-05-14T22:08:16.355Z,6.47
2019-05-14T22:11:18.644Z,6.50
2019-05-14T22:14:18.638Z,7.17
2019-05-14T22:17:16.244Z,7.56
2019-05-14T22:20:16.232Z,7.66
2019-05-14T22:23:17.831Z,7.42
2019-05-14T22:26:18.450Z,7.32
2019-05-14T22:29:17.892Z,7.47
2019-05-14T22:32:16.093Z,7.52
2019-05-14T22:35:16.092Z,7.52
2019-05-14T22:38:20.008Z,7.72
2019-05-14T22:41:18.416Z,7.81
2019-05-14T22:44:15.953Z,7.69
2019-05-14T22:47:15.944Z,7.50
2019-05-14T22:50:18.270Z,7.56
2019-05-14T22:53:15.858Z,7.75
2019-05-14T22:56:15.853Z,7.74
2019-05-14T22:59:15.792Z,7.66
2019-05-14T23:02:15.781Z,7.72
2019-05-14T23:05:15.757Z,7.79
2019-05-14T23:08:15.699Z,7.72
2019-05-14T23:11:15.690Z,7.81
2019-05-14T23:14:15.638Z,7.71
2019-05-14T23:17:15.628Z,7.62
2019-05-14T23:20:15.573Z,7.59
2019-05-14T23:23:15.561Z,7.53
2019-05-14T23:26:15.513Z,7.69
2019-05-14T23:29:15.491Z,7.59
2019-05-14T23:32:15.467Z,7.53
2019-05-14T23:35:15.412Z,7.44
2019-05-14T23:38:15.398Z,7.35
2019-05-14T23:41:15.353Z,7.44
2019-05-14T23:44:15.349Z,7.34
2019-05-14T23:47:15.290Z,7.42
2019-05-14T23:50:15.279Z,7.31
2019-05-14T23:53:15.222Z,7.24
2019-05-14T23:56:15.211Z,7.29
2019-05-14T23:59:15.186Z,7.23
